Calico Basin, Nevada
Current Conditions -  °F | °C
As of 5:56 AM on Friday 24 Oct 2014 (Local Time) from KHND Reporting Station
Clear Clear  
Wind Chill: 58°   Ceiling: Unl
Heat Index: 58°   Visibility: 10mi
Dew Point: 36°   Wind: 8mph
Humidity: 44%   Direction: 150°SSE
Pressure: 30.09"   Gusts: NA
Location:  35.8437°N, 115.134°W
Report Text: KHND 241256Z 15007KT 10SM CLR 14/02 A3009 RMK AO2 T01440022 SLP173
Loading
Personal Weather Stations






























Interactive Weather Map New forecast layout! Learn more

10-Day Weather Forecast

Advertisements
Track Severe Weather on mobile